sensor_id;sensor_type;location;lat;lon;timestamp;P1;durP1;ratioP1;P2;durP2;ratioP2
65463;SDS011;52063;45.110;9.870;2023-02-08T00:02:10;6.40;;;4.87;;
65463;SDS011;52063;45.110;9.870;2023-02-08T00:04:35;5.67;;;4.60;;
65463;SDS011;52063;45.110;9.870;2023-02-08T00:07:00;7.30;;;4.80;;
65463;SDS011;52063;45.110;9.870;2023-02-08T00:09:26;6.50;;;4.30;;
65463;SDS011;52063;45.110;9.870;2023-02-08T00:11:51;5.23;;;4.10;;
65463;SDS011;52063;45.110;9.870;2023-02-08T00:14:17;7.77;;;4.50;;
65463;SDS011;52063;45.110;9.870;2023-02-08T00:16:42;6.70;;;4.40;;
65463;SDS011;52063;45.110;9.870;2023-02-08T00:19:08;6.28;;;4.28;;
65463;SDS011;52063;45.110;9.870;2023-02-08T00:21:33;5.53;;;4.23;;
65463;SDS011;52063;45.110;9.870;2023-02-08T00:23:58;5.33;;;4.43;;
65463;SDS011;52063;45.110;9.870;2023-02-08T00:26:24;5.33;;;4.40;;
65463;SDS011;52063;45.110;9.870;2023-02-08T00:28:49;5.65;;;4.20;;
65463;SDS011;52063;45.110;9.870;2023-02-08T00:31:16;5.82;;;4.38;;
65463;SDS011;52063;45.110;9.870;2023-02-08T00:33:41;5.23;;;4.33;;
65463;SDS011;52063;45.110;9.870;2023-02-08T00:36:07;5.33;;;4.07;;
65463;SDS011;52063;45.110;9.870;2023-02-08T00:38:33;4.97;;;4.47;;
65463;SDS011;52063;45.110;9.870;2023-02-08T00:40:59;6.32;;;4.57;;
65463;SDS011;52063;45.110;9.870;2023-02-08T00:43:25;5.13;;;4.30;;
65463;SDS011;52063;45.110;9.870;2023-02-08T00:45:54;7.15;;;4.75;;
65463;SDS011;52063;45.110;9.870;2023-02-08T00:48:22;5.18;;;4.22;;
65463;SDS011;52063;45.110;9.870;2023-02-08T00:50:58;4.43;;;4.03;;
65463;SDS011;52063;45.110;9.870;2023-02-08T00:53:27;5.68;;;4.40;;
65463;SDS011;52063;45.110;9.870;2023-02-08T00:55:54;6.45;;;4.57;;
65463;SDS011;52063;45.110;9.870;2023-02-08T00:58:20;5.00;;;4.30;;
65463;SDS011;52063;45.110;9.870;2023-02-08T01:00:46;5.97;;;4.30;;
65463;SDS011;52063;45.110;9.870;2023-02-08T01:03:15;5.43;;;4.35;;
65463;SDS011;52063;45.110;9.870;2023-02-08T01:05:40;5.40;;;4.80;;
65463;SDS011;52063;45.110;9.870;2023-02-08T01:08:05;6.60;;;4.57;;
65463;SDS011;52063;45.110;9.870;2023-02-08T01:10:31;6.03;;;4.70;;
65463;SDS011;52063;45.110;9.870;2023-02-08T01:12:57;6.20;;;4.50;;
65463;SDS011;52063;45.110;9.870;2023-02-08T01:15:23;5.07;;;4.53;;
65463;SDS011;52063;45.110;9.870;2023-02-08T01:17:52;5.70;;;4.60;;
65463;SDS011;52063;45.110;9.870;2023-02-08T01:20:20;5.68;;;4.22;;
65463;SDS011;52063;45.110;9.870;2023-02-08T01:22:46;5.28;;;4.38;;
65463;SDS011;52063;45.110;9.870;2023-02-08T01:25:12;5.50;;;4.60;;
65463;SDS011;52063;45.110;9.870;2023-02-08T01:27:37;5.40;;;4.20;;
65463;SDS011;52063;45.110;9.870;2023-02-08T01:30:03;5.18;;;4.32;;
65463;SDS011;52063;45.110;9.870;2023-02-08T01:32:29;5.20;;;4.45;;
65463;SDS011;52063;45.110;9.870;2023-02-08T01:34:55;7.30;;;4.83;;
65463;SDS011;52063;45.110;9.870;2023-02-08T01:37:20;6.23;;;4.37;;
65463;SDS011;52063;45.110;9.870;2023-02-08T01:39:46;5.72;;;4.50;;
65463;SDS011;52063;45.110;9.870;2023-02-08T01:42:17;5.03;;;4.50;;
65463;SDS011;52063;45.110;9.870;2023-02-08T01:47:43;8.73;;;5.50;;
65463;SDS011;52063;45.110;9.870;2023-02-08T01:50:10;6.70;;;4.50;;
65463;SDS011;52063;45.110;9.870;2023-02-08T01:52:36;5.47;;;4.97;;
65463;SDS011;52063;45.110;9.870;2023-02-08T01:55:08;6.53;;;4.78;;
65463;SDS011;52063;45.110;9.870;2023-02-08T01:57:39;6.07;;;5.13;;
65463;SDS011;52063;45.110;9.870;2023-02-08T02:00:06;6.18;;;5.57;;
65463;SDS011;52063;45.110;9.870;2023-02-08T02:02:39;6.97;;;5.15;;
65463;SDS011;52063;45.110;9.870;2023-02-08T02:05:05;5.82;;;4.60;;
65463;SDS011;52063;45.110;9.870;2023-02-08T02:07:30;6.60;;;4.82;;
65463;SDS011;52063;45.110;9.870;2023-02-08T02:12:38;6.80;;;5.20;;
65463;SDS011;52063;45.110;9.870;2023-02-08T02:15:05;6.47;;;5.03;;
65463;SDS011;52063;45.110;9.870;2023-02-08T02:17:32;5.65;;;4.82;;
65463;SDS011;52063;45.110;9.870;2023-02-08T02:34:18;7.90;;;5.40;;
65463;SDS011;52063;45.110;9.870;2023-02-08T02:45:47;6.70;;;5.27;;
65463;SDS011;52063;45.110;9.870;2023-02-08T02:56:56;6.72;;;5.13;;
65463;SDS011;52063;45.110;9.870;2023-02-08T02:59:24;5.60;;;4.60;;
65463;SDS011;52063;45.110;9.870;2023-02-08T03:01:52;8.40;;;4.85;;
65463;SDS011;52063;45.110;9.870;2023-02-08T03:05:04;5.35;;;4.82;;
65463;SDS011;52063;45.110;9.870;2023-02-08T03:23:46;5.55;;;4.95;;
65463;SDS011;52063;45.110;9.870;2023-02-08T03:26:22;6.10;;;4.40;;
65463;SDS011;52063;45.110;9.870;2023-02-08T03:28:58;6.25;;;4.82;;
65463;SDS011;52063;45.110;9.870;2023-02-08T03:34:55;6.30;;;5.03;;
65463;SDS011;52063;45.110;9.870;2023-02-08T03:37:25;6.07;;;5.47;;
65463;SDS011;52063;45.110;9.870;2023-02-08T03:40:01;7.27;;;5.30;;
65463;SDS011;52063;45.110;9.870;2023-02-08T03:42:31;5.38;;;4.88;;
65463;SDS011;52063;45.110;9.870;2023-02-08T03:45:02;5.60;;;4.88;;
65463;SDS011;52063;45.110;9.870;2023-02-08T03:47:33;6.78;;;5.63;;
65463;SDS011;52063;45.110;9.870;2023-02-08T03:50:00;5.57;;;4.90;;
65463;SDS011;52063;45.110;9.870;2023-02-08T03:52:29;5.73;;;5.13;;
65463;SDS011;52063;45.110;9.870;2023-02-08T03:57:29;5.78;;;4.72;;
65463;SDS011;52063;45.110;9.870;2023-02-08T04:00:03;6.82;;;5.32;;
65463;SDS011;52063;45.110;9.870;2023-02-08T04:02:37;5.70;;;5.20;;
65463;SDS011;52063;45.110;9.870;2023-02-08T04:05:06;5.33;;;4.83;;
65463;SDS011;52063;45.110;9.870;2023-02-08T04:07:32;6.47;;;5.15;;
65463;SDS011;52063;45.110;9.870;2023-02-08T04:09:58;6.07;;;5.37;;
65463;SDS011;52063;45.110;9.870;2023-02-08T04:12:23;6.70;;;5.15;;
65463;SDS011;52063;45.110;9.870;2023-02-08T04:14:49;6.80;;;5.40;;
65463;SDS011;52063;45.110;9.870;2023-02-08T04:17:14;5.57;;;4.93;;
65463;SDS011;52063;45.110;9.870;2023-02-08T04:19:39;7.30;;;5.50;;
65463;SDS011;52063;45.110;9.870;2023-02-08T04:22:05;5.60;;;5.00;;
65463;SDS011;52063;45.110;9.870;2023-02-08T04:24:30;8.10;;;5.40;;
65463;SDS011;52063;45.110;9.870;2023-02-08T04:26:56;6.15;;;5.30;;
65463;SDS011;52063;45.110;9.870;2023-02-08T04:29:21;9.37;;;5.37;;
65463;SDS011;52063;45.110;9.870;2023-02-08T04:31:47;6.47;;;5.33;;
65463;SDS011;52063;45.110;9.870;2023-02-08T04:34:12;5.68;;;5.10;;
65463;SDS011;52063;45.110;9.870;2023-02-08T04:36:38;6.17;;;5.10;;
65463;SDS011;52063;45.110;9.870;2023-02-08T04:39:04;7.27;;;5.57;;
65463;SDS011;52063;45.110;9.870;2023-02-08T04:41:29;5.68;;;5.00;;
65463;SDS011;52063;45.110;9.870;2023-02-08T04:43:55;6.43;;;5.50;;
65463;SDS011;52063;45.110;9.870;2023-02-08T04:46:20;5.87;;;5.23;;
65463;SDS011;52063;45.110;9.870;2023-02-08T04:48:45;6.10;;;5.50;;
65463;SDS011;52063;45.110;9.870;2023-02-08T04:51:11;5.60;;;5.00;;
65463;SDS011;52063;45.110;9.870;2023-02-08T04:53:36;6.83;;;5.70;;
65463;SDS011;52063;45.110;9.870;2023-02-08T04:56:02;6.43;;;5.40;;
65463;SDS011;52063;45.110;9.870;2023-02-08T04:58:27;6.47;;;5.72;;
65463;SDS011;52063;45.110;9.870;2023-02-08T05:00:53;7.40;;;5.60;;
65463;SDS011;52063;45.110;9.870;2023-02-08T05:03:18;6.47;;;5.53;;
65463;SDS011;52063;45.110;9.870;2023-02-08T05:05:44;6.40;;;5.38;;
65463;SDS011;52063;45.110;9.870;2023-02-08T05:08:09;5.57;;;5.00;;
65463;SDS011;52063;45.110;9.870;2023-02-08T05:10:35;5.93;;;4.67;;
65463;SDS011;52063;45.110;9.870;2023-02-08T05:13:00;6.28;;;5.15;;
65463;SDS011;52063;45.110;9.870;2023-02-08T05:15:26;6.57;;;5.07;;
65463;SDS011;52063;45.110;9.870;2023-02-08T05:17:51;5.57;;;5.07;;
65463;SDS011;52063;45.110;9.870;2023-02-08T05:20:17;5.67;;;5.13;;
65463;SDS011;52063;45.110;9.870;2023-02-08T05:22:42;6.33;;;5.30;;
65463;SDS011;52063;45.110;9.870;2023-02-08T05:25:08;5.70;;;5.10;;
65463;SDS011;52063;45.110;9.870;2023-02-08T05:27:34;5.30;;;4.70;;
65463;SDS011;52063;45.110;9.870;2023-02-08T05:29:59;5.80;;;5.00;;
65463;SDS011;52063;45.110;9.870;2023-02-08T05:32:25;5.60;;;5.00;;
65463;SDS011;52063;45.110;9.870;2023-02-08T05:34:51;5.30;;;4.80;;
65463;SDS011;52063;45.110;9.870;2023-02-08T05:37:16;5.50;;;4.93;;
65463;SDS011;52063;45.110;9.870;2023-02-08T05:39:42;5.70;;;5.10;;
65463;SDS011;52063;45.110;9.870;2023-02-08T05:42:07;6.03;;;5.47;;
65463;SDS011;52063;45.110;9.870;2023-02-08T05:44:33;7.60;;;5.37;;
65463;SDS011;52063;45.110;9.870;2023-02-08T05:46:58;7.40;;;5.00;;
65463;SDS011;52063;45.110;9.870;2023-02-08T05:49:23;5.63;;;4.70;;
65463;SDS011;52063;45.110;9.870;2023-02-08T05:51:49;5.88;;;5.30;;
65463;SDS011;52063;45.110;9.870;2023-02-08T05:54:15;6.40;;;5.17;;
65463;SDS011;52063;45.110;9.870;2023-02-08T05:56:41;5.47;;;4.95;;
65463;SDS011;52063;45.110;9.870;2023-02-08T05:59:07;5.07;;;4.57;;
65463;SDS011;52063;45.110;9.870;2023-02-08T06:01:33;5.93;;;4.72;;
65463;SDS011;52063;45.110;9.870;2023-02-08T06:03:59;7.22;;;5.32;;
65463;SDS011;52063;45.110;9.870;2023-02-08T06:06:25;5.73;;;4.83;;
65463;SDS011;52063;45.110;9.870;2023-02-08T06:08:50;8.63;;;4.63;;
65463;SDS011;52063;45.110;9.870;2023-02-08T06:11:16;6.40;;;4.57;;
65463;SDS011;52063;45.110;9.870;2023-02-08T06:13:43;8.02;;;5.00;;
65463;SDS011;52063;45.110;9.870;2023-02-08T06:16:10;6.28;;;4.95;;
65463;SDS011;52063;45.110;9.870;2023-02-08T06:18:36;5.97;;;5.13;;
65463;SDS011;52063;45.110;9.870;2023-02-08T06:21:02;4.90;;;4.50;;
65463;SDS011;52063;45.110;9.870;2023-02-08T06:23:27;5.95;;;4.80;;
65463;SDS011;52063;45.110;9.870;2023-02-08T06:25:53;5.00;;;4.50;;
65463;SDS011;52063;45.110;9.870;2023-02-08T06:28:18;4.82;;;4.32;;
65463;SDS011;52063;45.110;9.870;2023-02-08T06:30:44;4.70;;;4.30;;
65463;SDS011;52063;45.110;9.870;2023-02-08T06:33:09;7.13;;;4.50;;
65463;SDS011;52063;45.110;9.870;2023-02-08T06:35:35;5.57;;;4.43;;
65463;SDS011;52063;45.110;9.870;2023-02-08T06:38:00;7.63;;;4.60;;
65463;SDS011;52063;45.110;9.870;2023-02-08T06:40:26;5.90;;;4.10;;
65463;SDS011;52063;45.110;9.870;2023-02-08T06:42:51;4.90;;;4.40;;
65463;SDS011;52063;45.110;9.870;2023-02-08T06:45:17;4.53;;;4.13;;
65463;SDS011;52063;45.110;9.870;2023-02-08T06:47:42;5.23;;;4.57;;
65463;SDS011;52063;45.110;9.870;2023-02-08T06:50:08;4.20;;;3.80;;
65463;SDS011;52063;45.110;9.870;2023-02-08T06:52:34;4.90;;;4.40;;
65463;SDS011;52063;45.110;9.870;2023-02-08T06:54:59;4.37;;;3.77;;
65463;SDS011;52063;45.110;9.870;2023-02-08T06:57:25;4.43;;;4.03;;
65463;SDS011;52063;45.110;9.870;2023-02-08T06:59:50;4.20;;;3.80;;
65463;SDS011;52063;45.110;9.870;2023-02-08T07:02:17;4.50;;;4.10;;
65463;SDS011;52063;45.110;9.870;2023-02-08T07:04:43;5.25;;;3.70;;
65463;SDS011;52063;45.110;9.870;2023-02-08T07:07:10;4.15;;;3.72;;
65463;SDS011;52063;45.110;9.870;2023-02-08T07:09:36;4.63;;;3.80;;
65463;SDS011;52063;45.110;9.870;2023-02-08T07:12:02;5.00;;;3.60;;
65463;SDS011;52063;45.110;9.870;2023-02-08T07:14:35;3.72;;;3.35;;
65463;SDS011;52063;45.110;9.870;2023-02-08T07:17:03;4.35;;;3.30;;
65463;SDS011;52063;45.110;9.870;2023-02-08T07:19:29;4.03;;;3.63;;
65463;SDS011;52063;45.110;9.870;2023-02-08T07:21:54;4.87;;;4.00;;
65463;SDS011;52063;45.110;9.870;2023-02-08T07:24:20;4.00;;;3.60;;
65463;SDS011;52063;45.110;9.870;2023-02-08T07:26:45;4.30;;;3.90;;
65463;SDS011;52063;45.110;9.870;2023-02-08T07:29:11;3.57;;;3.27;;
65463;SDS011;52063;45.110;9.870;2023-02-08T07:31:36;3.63;;;3.33;;
65463;SDS011;52063;45.110;9.870;2023-02-08T07:34:02;4.20;;;3.53;;
65463;SDS011;52063;45.110;9.870;2023-02-08T07:36:28;4.30;;;3.63;;
65463;SDS011;52063;45.110;9.870;2023-02-08T07:38:53;4.25;;;3.85;;
65463;SDS011;52063;45.110;9.870;2023-02-08T07:41:19;4.03;;;3.57;;
65463;SDS011;52063;45.110;9.870;2023-02-08T07:43:44;3.70;;;3.40;;
65463;SDS011;52063;45.110;9.870;2023-02-08T07:46:11;5.03;;;3.67;;
65463;SDS011;52063;45.110;9.870;2023-02-08T07:48:38;4.03;;;3.63;;
65463;SDS011;52063;45.110;9.870;2023-02-08T07:51:04;4.68;;;3.80;;
65463;SDS011;52063;45.110;9.870;2023-02-08T07:53:29;4.68;;;4.28;;
65463;SDS011;52063;45.110;9.870;2023-02-08T07:55:55;5.50;;;4.00;;
65463;SDS011;52063;45.110;9.870;2023-02-08T07:58:21;4.10;;;3.70;;
65463;SDS011;52063;45.110;9.870;2023-02-08T08:00:47;4.27;;;3.87;;
65463;SDS011;52063;45.110;9.870;2023-02-08T08:03:12;4.10;;;3.65;;
65463;SDS011;52063;45.110;9.870;2023-02-08T08:05:41;5.50;;;3.63;;
65463;SDS011;52063;45.110;9.870;2023-02-08T08:08:07;5.68;;;3.88;;
65463;SDS011;52063;45.110;9.870;2023-02-08T08:10:33;5.22;;;4.15;;
65463;SDS011;52063;45.110;9.870;2023-02-08T08:12:58;4.43;;;3.83;;
65463;SDS011;52063;45.110;9.870;2023-02-08T08:15:24;5.07;;;4.10;;
65463;SDS011;52063;45.110;9.870;2023-02-08T08:17:49;4.63;;;4.10;;
65463;SDS011;52063;45.110;9.870;2023-02-08T08:20:15;5.73;;;3.90;;
65463;SDS011;52063;45.110;9.870;2023-02-08T08:22:40;6.03;;;4.33;;
65463;SDS011;52063;45.110;9.870;2023-02-08T08:25:06;7.72;;;4.47;;
65463;SDS011;52063;45.110;9.870;2023-02-08T08:27:31;8.53;;;4.33;;
65463;SDS011;52063;45.110;9.870;2023-02-08T08:29:57;5.07;;;4.35;;
65463;SDS011;52063;45.110;9.870;2023-02-08T08:32:24;5.55;;;4.28;;
65463;SDS011;52063;45.110;9.870;2023-02-08T08:34:49;5.57;;;4.50;;
65463;SDS011;52063;45.110;9.870;2023-02-08T08:37:15;5.78;;;4.40;;
65463;SDS011;52063;45.110;9.870;2023-02-08T08:39:40;5.30;;;4.40;;
65463;SDS011;52063;45.110;9.870;2023-02-08T08:42:06;6.43;;;4.60;;
65463;SDS011;52063;45.110;9.870;2023-02-08T08:44:31;4.38;;;3.97;;
65463;SDS011;52063;45.110;9.870;2023-02-08T08:46:57;6.83;;;4.90;;
65463;SDS011;52063;45.110;9.870;2023-02-08T08:49:24;7.72;;;4.97;;
65463;SDS011;52063;45.110;9.870;2023-02-08T08:51:50;8.15;;;5.20;;
65463;SDS011;52063;45.110;9.870;2023-02-08T08:54:16;5.37;;;4.40;;
65463;SDS011;52063;45.110;9.870;2023-02-08T08:56:42;6.90;;;4.50;;
65463;SDS011;52063;45.110;9.870;2023-02-08T08:59:07;6.50;;;4.90;;
65463;SDS011;52063;45.110;9.870;2023-02-08T09:01:32;16.53;;;10.67;;
65463;SDS011;52063;45.110;9.870;2023-02-08T09:03:58;29.93;;;17.47;;
65463;SDS011;52063;45.110;9.870;2023-02-08T09:06:24;22.23;;;16.38;;
65463;SDS011;52063;45.110;9.870;2023-02-08T09:08:49;34.93;;;19.33;;
65463;SDS011;52063;45.110;9.870;2023-02-08T09:11:15;36.87;;;19.77;;
65463;SDS011;52063;45.110;9.870;2023-02-08T09:13:41;38.85;;;22.35;;
65463;SDS011;52063;45.110;9.870;2023-02-08T09:18:33;22.27;;;14.18;;
65463;SDS011;52063;45.110;9.870;2023-02-08T09:21:03;26.10;;;15.20;;
65463;SDS011;52063;45.110;9.870;2023-02-08T09:23:32;23.77;;;13.95;;
65463;SDS011;52063;45.110;9.870;2023-02-08T09:25:58;21.83;;;13.80;;
65463;SDS011;52063;45.110;9.870;2023-02-08T09:28:26;19.38;;;13.20;;
65463;SDS011;52063;45.110;9.870;2023-02-08T09:30:51;23.77;;;14.07;;
65463;SDS011;52063;45.110;9.870;2023-02-08T09:33:17;27.93;;;13.57;;
65463;SDS011;52063;45.110;9.870;2023-02-08T09:35:42;21.30;;;14.37;;
65463;SDS011;52063;45.110;9.870;2023-02-08T09:38:08;22.40;;;13.70;;
65463;SDS011;52063;45.110;9.870;2023-02-08T09:46:27;21.20;;;13.82;;
65463;SDS011;52063;45.110;9.870;2023-02-08T09:48:55;19.85;;;13.45;;
65463;SDS011;52063;45.110;9.870;2023-02-08T09:54:07;22.87;;;14.33;;
65463;SDS011;52063;45.110;9.870;2023-02-08T09:56:37;18.70;;;12.98;;
65463;SDS011;52063;45.110;9.870;2023-02-08T09:59:04;18.17;;;13.35;;
65463;SDS011;52063;45.110;9.870;2023-02-08T10:01:31;20.17;;;13.43;;
65463;SDS011;52063;45.110;9.870;2023-02-08T10:04:00;18.90;;;13.05;;
65463;SDS011;52063;45.110;9.870;2023-02-08T10:06:28;19.17;;;13.00;;
65463;SDS011;52063;45.110;9.870;2023-02-08T10:08:54;18.25;;;13.10;;
65463;SDS011;52063;45.110;9.870;2023-02-08T10:14:29;17.23;;;12.52;;
65463;SDS011;52063;45.110;9.870;2023-02-08T10:33:46;16.58;;;11.45;;
65463;SDS011;52063;45.110;9.870;2023-02-08T10:36:25;16.92;;;12.75;;
65463;SDS011;52063;45.110;9.870;2023-02-08T10:38:55;14.68;;;11.23;;
65463;SDS011;52063;45.110;9.870;2023-02-08T10:41:22;17.97;;;11.60;;
65463;SDS011;52063;45.110;9.870;2023-02-08T10:44:12;19.40;;;12.38;;
65463;SDS011;52063;45.110;9.870;2023-02-08T10:47:14;14.00;;;10.68;;
65463;SDS011;52063;45.110;9.870;2023-02-08T10:49:43;16.67;;;11.43;;
65463;SDS011;52063;45.110;9.870;2023-02-08T10:52:14;14.63;;;10.40;;
65463;SDS011;52063;45.110;9.870;2023-02-08T10:54:40;17.63;;;11.32;;
65463;SDS011;52063;45.110;9.870;2023-02-08T10:57:09;15.73;;;10.97;;
65463;SDS011;52063;45.110;9.870;2023-02-08T10:59:52;15.43;;;10.68;;
65463;SDS011;52063;45.110;9.870;2023-02-08T11:02:24;15.60;;;11.20;;
65463;SDS011;52063;45.110;9.870;2023-02-08T11:05:02;13.70;;;10.07;;
65463;SDS011;52063;45.110;9.870;2023-02-08T11:07:30;14.45;;;10.95;;
65463;SDS011;52063;45.110;9.870;2023-02-08T11:10:12;16.40;;;10.55;;
65463;SDS011;52063;45.110;9.870;2023-02-08T11:13:00;15.60;;;10.68;;
65463;SDS011;52063;45.110;9.870;2023-02-08T11:18:19;16.43;;;10.80;;
65463;SDS011;52063;45.110;9.870;2023-02-08T11:20:48;13.82;;;10.40;;
65463;SDS011;52063;45.110;9.870;2023-02-08T11:23:33;13.85;;;10.77;;
65463;SDS011;52063;45.110;9.870;2023-02-08T11:29:00;15.38;;;11.02;;
65463;SDS011;52063;45.110;9.870;2023-02-08T11:31:27;12.13;;;9.53;;
65463;SDS011;52063;45.110;9.870;2023-02-08T11:34:03;13.48;;;10.55;;
65463;SDS011;52063;45.110;9.870;2023-02-08T11:36:31;14.93;;;10.50;;
65463;SDS011;52063;45.110;9.870;2023-02-08T11:38:59;13.02;;;10.20;;
65463;SDS011;52063;45.110;9.870;2023-02-08T11:41:26;16.10;;;10.67;;
65463;SDS011;52063;45.110;9.870;2023-02-08T11:43:53;17.00;;;10.52;;
65463;SDS011;52063;45.110;9.870;2023-02-08T11:46:22;13.80;;;10.05;;
65463;SDS011;52063;45.110;9.870;2023-02-08T11:48:49;14.57;;;10.67;;
65463;SDS011;52063;45.110;9.870;2023-02-08T11:51:26;13.07;;;10.13;;
65463;SDS011;52063;45.110;9.870;2023-02-08T11:53:53;16.45;;;9.82;;
65463;SDS011;52063;45.110;9.870;2023-02-08T11:56:23;15.27;;;10.70;;
65463;SDS011;52063;45.110;9.870;2023-02-08T11:58:55;15.52;;;10.85;;
65463;SDS011;52063;45.110;9.870;2023-02-08T12:01:21;15.10;;;10.65;;
65463;SDS011;52063;45.110;9.870;2023-02-08T12:03:51;13.27;;;9.20;;
65463;SDS011;52063;45.110;9.870;2023-02-08T12:09:01;15.27;;;9.93;;
65463;SDS011;52063;45.110;9.870;2023-02-08T12:11:49;13.75;;;10.27;;
65463;SDS011;52063;45.110;9.870;2023-02-08T12:23:06;16.10;;;9.07;;
65463;SDS011;52063;45.110;9.870;2023-02-08T12:30:37;12.73;;;8.90;;
65463;SDS011;52063;45.110;9.870;2023-02-08T12:39:37;11.55;;;8.73;;
65463;SDS011;52063;45.110;9.870;2023-02-08T12:42:52;13.68;;;8.23;;
65463;SDS011;52063;45.110;9.870;2023-02-08T12:45:33;11.18;;;7.95;;
65463;SDS011;52063;45.110;9.870;2023-02-08T12:48:29;11.27;;;7.43;;
65463;SDS011;52063;45.110;9.870;2023-02-08T12:54:03;12.55;;;7.90;;
65463;SDS011;52063;45.110;9.870;2023-02-08T12:56:38;9.60;;;7.00;;
65463;SDS011;52063;45.110;9.870;2023-02-08T12:59:10;9.77;;;7.30;;
65463;SDS011;52063;45.110;9.870;2023-02-08T13:01:43;9.30;;;7.43;;
65463;SDS011;52063;45.110;9.870;2023-02-08T13:04:14;10.57;;;7.75;;
65463;SDS011;52063;45.110;9.870;2023-02-08T13:06:52;10.38;;;7.45;;
65463;SDS011;52063;45.110;9.870;2023-02-08T13:09:37;10.52;;;7.43;;
65463;SDS011;52063;45.110;9.870;2023-02-08T13:12:12;10.43;;;7.50;;
65463;SDS011;52063;45.110;9.870;2023-02-08T13:14:50;9.57;;;7.20;;
65463;SDS011;52063;45.110;9.870;2023-02-08T13:17:26;8.82;;;6.95;;
65463;SDS011;52063;45.110;9.870;2023-02-08T13:22:59;9.77;;;6.78;;
65463;SDS011;52063;45.110;9.870;2023-02-08T13:25:34;8.88;;;7.20;;
65463;SDS011;52063;45.110;9.870;2023-02-08T13:28:04;7.30;;;5.87;;
65463;SDS011;52063;45.110;9.870;2023-02-08T13:30:31;8.32;;;6.90;;
65463;SDS011;52063;45.110;9.870;2023-02-08T13:32:57;11.20;;;6.90;;
65463;SDS011;52063;45.110;9.870;2023-02-08T13:35:29;10.30;;;6.90;;
65463;SDS011;52063;45.110;9.870;2023-02-08T13:38:02;9.00;;;6.25;;
65463;SDS011;52063;45.110;9.870;2023-02-08T13:40:31;8.03;;;6.70;;
65463;SDS011;52063;45.110;9.870;2023-02-08T13:43:00;7.80;;;6.00;;
65463;SDS011;52063;45.110;9.870;2023-02-08T13:48:22;11.50;;;6.15;;
65463;SDS011;52063;45.110;9.870;2023-02-08T13:50:49;6.87;;;5.80;;
65463;SDS011;52063;45.110;9.870;2023-02-08T13:53:16;7.83;;;6.23;;
65463;SDS011;52063;45.110;9.870;2023-02-08T13:55:50;9.38;;;6.50;;
65463;SDS011;52063;45.110;9.870;2023-02-08T14:01:11;8.48;;;6.28;;
65463;SDS011;52063;45.110;9.870;2023-02-08T14:03:45;7.70;;;6.13;;
65463;SDS011;52063;45.110;9.870;2023-02-08T14:06:35;7.67;;;5.90;;
65463;SDS011;52063;45.110;9.870;2023-02-08T14:09:13;7.55;;;5.85;;
65463;SDS011;52063;45.110;9.870;2023-02-08T14:11:48;8.35;;;5.85;;
65463;SDS011;52063;45.110;9.870;2023-02-08T14:16:46;8.00;;;5.90;;
65463;SDS011;52063;45.110;9.870;2023-02-08T14:19:36;7.10;;;5.30;;
65463;SDS011;52063;45.110;9.870;2023-02-08T14:27:26;7.40;;;5.50;;
65463;SDS011;52063;45.110;9.870;2023-02-08T14:32:32;6.43;;;5.37;;
65463;SDS011;52063;45.110;9.870;2023-02-08T14:35:08;6.97;;;5.32;;
65463;SDS011;52063;45.110;9.870;2023-02-08T14:37:43;6.68;;;4.95;;
65463;SDS011;52063;45.110;9.870;2023-02-08T14:42:53;8.38;;;5.30;;
65463;SDS011;52063;45.110;9.870;2023-02-08T14:45:27;6.87;;;5.23;;
65463;SDS011;52063;45.110;9.870;2023-02-08T14:47:58;5.93;;;4.80;;
65463;SDS011;52063;45.110;9.870;2023-02-08T14:50:31;7.40;;;5.47;;
65463;SDS011;52063;45.110;9.870;2023-02-08T14:53:02;5.82;;;5.20;;
65463;SDS011;52063;45.110;9.870;2023-02-08T14:58:38;6.33;;;5.23;;
65463;SDS011;52063;45.110;9.870;2023-02-08T15:01:47;6.63;;;5.30;;
65463;SDS011;52063;45.110;9.870;2023-02-08T15:03:56;5.30;;;4.78;;
65463;SDS011;52063;45.110;9.870;2023-02-08T15:09:01;7.30;;;5.30;;
65463;SDS011;52063;45.110;9.870;2023-02-08T15:11:31;6.07;;;5.00;;
65463;SDS011;52063;45.110;9.870;2023-02-08T15:13:58;4.93;;;4.43;;
65463;SDS011;52063;45.110;9.870;2023-02-08T15:16:31;6.35;;;4.68;;
65463;SDS011;52063;45.110;9.870;2023-02-08T15:19:01;5.43;;;4.78;;
65463;SDS011;52063;45.110;9.870;2023-02-08T15:21:29;6.50;;;4.65;;
65463;SDS011;52063;45.110;9.870;2023-02-08T15:24:00;5.97;;;4.90;;
65463;SDS011;52063;45.110;9.870;2023-02-08T15:26:27;5.57;;;4.80;;
65463;SDS011;52063;45.110;9.870;2023-02-08T15:28:53;5.50;;;4.53;;
65463;SDS011;52063;45.110;9.870;2023-02-08T15:31:20;5.43;;;4.43;;
65463;SDS011;52063;45.110;9.870;2023-02-08T15:33:48;5.80;;;4.00;;
65463;SDS011;52063;45.110;9.870;2023-02-08T15:36:21;4.32;;;3.90;;
65463;SDS011;52063;45.110;9.870;2023-02-08T15:38:50;5.45;;;4.82;;
65463;SDS011;52063;45.110;9.870;2023-02-08T15:41:23;7.57;;;4.80;;
65463;SDS011;52063;45.110;9.870;2023-02-08T15:43:58;4.80;;;4.30;;
65463;SDS011;52063;45.110;9.870;2023-02-08T15:46:25;6.00;;;4.68;;
65463;SDS011;52063;45.110;9.870;2023-02-08T15:48:51;5.13;;;4.63;;
65463;SDS011;52063;45.110;9.870;2023-02-08T15:51:17;5.20;;;4.35;;
65463;SDS011;52063;45.110;9.870;2023-02-08T15:53:47;5.63;;;4.40;;
65463;SDS011;52063;45.110;9.870;2023-02-08T15:56:15;7.27;;;4.63;;
65463;SDS011;52063;45.110;9.870;2023-02-08T15:58:43;4.80;;;4.30;;
65463;SDS011;52063;45.110;9.870;2023-02-08T16:01:16;5.53;;;4.50;;
65463;SDS011;52063;45.110;9.870;2023-02-08T16:03:59;6.43;;;4.40;;
65463;SDS011;52063;45.110;9.870;2023-02-08T16:06:32;7.07;;;4.20;;
65463;SDS011;52063;45.110;9.870;2023-02-08T16:09:01;4.60;;;4.20;;
65463;SDS011;52063;45.110;9.870;2023-02-08T16:11:28;5.13;;;4.20;;
65463;SDS011;52063;45.110;9.870;2023-02-08T16:13:56;4.40;;;4.00;;
65463;SDS011;52063;45.110;9.870;2023-02-08T16:21:27;4.97;;;4.20;;
65463;SDS011;52063;45.110;9.870;2023-02-08T16:26:36;5.13;;;4.47;;
65463;SDS011;52063;45.110;9.870;2023-02-08T16:29:06;4.80;;;4.30;;
65463;SDS011;52063;45.110;9.870;2023-02-08T16:31:45;6.20;;;4.25;;
65463;SDS011;52063;45.110;9.870;2023-02-08T16:34:16;6.13;;;3.90;;
65463;SDS011;52063;45.110;9.870;2023-02-08T16:36:47;5.20;;;4.32;;
65463;SDS011;52063;45.110;9.870;2023-02-08T16:42:01;4.97;;;3.95;;
65463;SDS011;52063;45.110;9.870;2023-02-08T16:44:58;5.57;;;4.30;;
65463;SDS011;52063;45.110;9.870;2023-02-08T16:47:37;4.87;;;4.37;;
65463;SDS011;52063;45.110;9.870;2023-02-08T16:50:05;5.03;;;4.13;;
65463;SDS011;52063;45.110;9.870;2023-02-08T16:52:32;5.63;;;4.68;;
65463;SDS011;52063;45.110;9.870;2023-02-08T16:54:58;4.72;;;4.13;;
65463;SDS011;52063;45.110;9.870;2023-02-08T16:57:35;7.25;;;4.32;;
65463;SDS011;52063;45.110;9.870;2023-02-08T17:00:05;5.63;;;4.30;;
65463;SDS011;52063;45.110;9.870;2023-02-08T17:02:37;5.50;;;4.20;;
65463;SDS011;52063;45.110;9.870;2023-02-08T17:05:03;5.43;;;4.80;;
65463;SDS011;52063;45.110;9.870;2023-02-08T17:07:29;5.65;;;4.75;;
65463;SDS011;52063;45.110;9.870;2023-02-08T17:09:56;7.78;;;5.45;;
65463;SDS011;52063;45.110;9.870;2023-02-08T17:12:22;6.00;;;4.80;;
65463;SDS011;52063;45.110;9.870;2023-02-08T17:14:48;7.75;;;5.47;;
65463;SDS011;52063;45.110;9.870;2023-02-08T17:17:13;6.70;;;5.20;;
65463;SDS011;52063;45.110;9.870;2023-02-08T17:19:39;7.60;;;6.00;;
65463;SDS011;52063;45.110;9.870;2023-02-08T17:22:04;6.50;;;4.90;;
65463;SDS011;52063;45.110;9.870;2023-02-08T17:24:30;5.93;;;5.33;;
65463;SDS011;52063;45.110;9.870;2023-02-08T17:26:55;6.20;;;4.65;;
65463;SDS011;52063;45.110;9.870;2023-02-08T17:29:21;5.87;;;5.00;;
65463;SDS011;52063;45.110;9.870;2023-02-08T17:31:46;6.07;;;4.97;;
65463;SDS011;52063;45.110;9.870;2023-02-08T17:34:12;5.57;;;4.95;;